Terminal Aerodrome Forecast
Issued by NWS

Home | Current Version | Previous Version | Text Only | Print | Product List | Glossary On
Versions: 1 2 3 4 5 6 7 8 9 10 11 12 13 14 15 16 17 18 19 20 21 22 23 24 25 26 27 28 29 30 31 32 33 34 35 36
845
FTUS41 KRNK 050105 AAA
TAFLWB
TAF AMD
KLWB 050105Z 0501/0524 00000KT 2SM -RA BR SCT005 OVC015
      TEMPO 0501/0504 BKN005
     FM050400 VRB03KT 4SM -RA BR OVC007
     FM050900 00000KT 5SM BR OVC007 WS020/19035KT
     FM051300 29004KT P6SM OVC020
     FM051600 30004KT P6SM SCT025 BKN250=

USA.gov is the U.S. government's official web portal to all federal, state and local government web resources and services.